KCMD

Cullman Regional-Folsom Field Airport

Cullman, Alabama, USA
METAR KCMD 240155Z AUTO 00000KT 22/21 A3011 RMK AO2 T02200212 PWINO
Observed Flight Rules
May-24 @ 01:55 UTC (25 minutes ago)
Temperatures Readings
Current 22°C / 72°F
Dewpoint 21°C / 70°F
Humidity 94%
Altimeter 30.11" Hg
Pressure 1020 hPa
Elevation 294
METAR KCMD 240155Z AUTO 00000KT 22/21 A3011 RMK AO2 T02200212 PWINO
Observed Flight Rules
May-24 @ 01:55 UTC
(25 minutes ago)
Temperature Dewpoint
22°C / 72°F 21°C / 70°F
Humidity Altimeter Pressure
94% 30.11" Hg 1020 hPa